createdAt,value
2023-02-12T00:00:09.236Z,12.88
2023-02-12T00:02:36.381Z,11.55
2023-02-12T00:05:03.787Z,13.43
2023-02-12T00:07:31.626Z,12.18
2023-02-12T00:09:58.452Z,11.77
2023-02-12T00:12:25.790Z,10.77
2023-02-12T00:14:52.667Z,12.52
2023-02-12T00:17:19.570Z,12.57
2023-02-12T00:19:48.812Z,10.88
2023-02-12T00:22:15.686Z,10.93
2023-02-12T00:24:42.499Z,10.52
2023-02-12T00:27:09.715Z,10.95
2023-02-12T00:29:37.697Z,11.35
2023-02-12T00:32:04.542Z,11.77
2023-02-12T00:34:31.893Z,11.57
2023-02-12T00:36:58.862Z,11.27
2023-02-12T00:39:25.820Z,12.40
2023-02-12T00:41:53.269Z,11.80
2023-02-12T00:44:20.192Z,11.77
2023-02-12T00:46:47.331Z,12.63
2023-02-12T00:49:14.846Z,15.10
2023-02-12T00:51:42.001Z,16.35
2023-02-12T00:54:08.863Z,12.88
2023-02-12T00:56:35.952Z,11.25
2023-02-12T00:59:03.223Z,12.77
2023-02-12T01:01:30.091Z,13.55
2023-02-12T01:03:57.302Z,12.82
2023-02-12T01:06:24.264Z,14.75
2023-02-12T01:08:52.366Z,13.82
2023-02-12T01:11:20.149Z,13.57
2023-02-12T01:13:47.160Z,14.25
2023-02-12T01:16:24.994Z,14.23
2023-02-12T01:18:55.957Z,13.35
2023-02-12T01:21:27.003Z,14.20
2023-02-12T01:23:53.913Z,13.43
2023-02-12T01:26:21.965Z,13.43
2023-02-12T01:28:51.607Z,12.85
2023-02-12T01:31:22.818Z,14.38
2023-02-12T01:33:55.744Z,12.48
2023-02-12T01:36:23.392Z,12.88
2023-02-12T01:38:50.781Z,13.13
2023-02-12T01:41:25.439Z,13.05
2023-02-12T01:44:18.414Z,13.07
2023-02-12T01:46:48.261Z,11.70
2023-02-12T01:49:24.724Z,12.15
2023-02-12T01:51:56.439Z,12.52
2023-02-12T01:54:26.057Z,12.27
2023-02-12T01:56:53.567Z,11.90
2023-02-12T01:59:21.383Z,12.20
2023-02-12T02:01:48.634Z,11.15
2023-02-12T02:04:20.078Z,11.05
2023-02-12T02:06:54.086Z,8.70
2023-02-12T02:09:21.155Z,6.50
2023-02-12T02:12:06.465Z,5.68
2023-02-12T02:14:33.979Z,5.07
2023-02-12T02:17:03.832Z,6.05
2023-02-12T02:20:09.572Z,6.15
2023-02-12T02:22:39.454Z,6.22
2023-02-12T02:25:26.610Z,5.28
2023-02-12T02:28:09.940Z,5.65
2023-02-12T02:31:16.538Z,4.53
2023-02-12T02:33:49.562Z,4.65
2023-02-12T02:36:28.313Z,4.38
2023-02-12T02:39:23.669Z,4.07
2023-02-12T02:42:08.414Z,5.15
2023-02-12T02:45:05.831Z,5.20
2023-02-12T02:47:40.153Z,4.95
2023-02-12T02:50:13.029Z,8.25
2023-02-12T02:52:53.041Z,10.82
2023-02-12T02:55:23.573Z,10.98
2023-02-12T02:58:04.083Z,11.20
2023-02-12T03:00:45.042Z,10.57
2023-02-12T03:03:30.609Z,9.27
2023-02-12T03:06:09.712Z,10.05
2023-02-12T03:08:42.448Z,9.82
2023-02-12T03:11:19.687Z,9.75
2023-02-12T03:13:58.031Z,9.35
2023-02-12T03:16:40.669Z,10.07
2023-02-12T03:19:15.023Z,9.15
2023-02-12T03:21:47.329Z,9.65
2023-02-12T03:24:33.097Z,10.25
2023-02-12T03:27:15.137Z,8.63
2023-02-12T03:29:41.983Z,9.02
2023-02-12T03:32:23.154Z,9.63
2023-02-12T03:35:07.657Z,11.48
2023-02-12T03:37:39.764Z,11.80
2023-02-12T03:40:31.572Z,11.27
2023-02-12T03:43:17.306Z,11.75
2023-02-12T03:45:53.049Z,11.43
2023-02-12T03:48:45.319Z,9.93
2023-02-12T03:51:23.686Z,9.90
2023-02-12T03:53:50.892Z,8.52
2023-02-12T03:56:52.448Z,9.57
2023-02-12T03:59:21.543Z,8.00
2023-02-12T04:01:50.413Z,9.48
2023-02-12T04:04:17.921Z,8.80
2023-02-12T04:06:48.308Z,10.70
2023-02-12T04:09:15.901Z,9.00
2023-02-12T04:11:42.710Z,11.07
2023-02-12T04:14:15.534Z,9.48
2023-02-12T04:17:21.545Z,11.70
2023-02-12T04:20:08.843Z,13.55
2023-02-12T04:22:54.244Z,13.40
2023-02-12T04:25:52.966Z,11.18
2023-02-12T04:28:35.618Z,12.38
2023-02-12T04:31:16.217Z,8.50
2023-02-12T04:33:50.093Z,8.40
2023-02-12T04:36:25.530Z,10.63
2023-02-12T04:38:58.025Z,11.55
2023-02-12T04:41:26.092Z,9.68
2023-02-12T04:43:52.925Z,10.82
2023-02-12T04:46:19.869Z,11.68
2023-02-12T04:48:56.578Z,12.60
2023-02-12T04:51:23.478Z,12.13
2023-02-12T04:53:50.732Z,9.35
2023-02-12T04:56:18.140Z,6.13
2023-02-12T04:58:45.131Z,4.63
2023-02-12T05:01:12.069Z,4.85
2023-02-12T05:03:38.983Z,5.05
2023-02-12T05:06:08.783Z,4.10
2023-02-12T05:08:36.343Z,4.45
2023-02-12T05:11:11.236Z,5.05
2023-02-12T05:13:38.610Z,7.22
2023-02-12T05:16:06.696Z,11.50
2023-02-12T05:18:35.282Z,13.30
2023-02-12T05:21:04.930Z,12.13
2023-02-12T05:23:36.129Z,9.88
2023-02-12T05:26:09.165Z,8.65
2023-02-12T05:28:36.617Z,10.43
2023-02-12T05:31:06.761Z,10.38
2023-02-12T05:33:39.041Z,10.88
2023-02-12T05:36:12.980Z,10.77
2023-02-12T05:38:40.341Z,11.50
2023-02-12T05:41:10.221Z,10.82
2023-02-12T05:43:39.432Z,11.05
2023-02-12T05:46:07.520Z,11.30
2023-02-12T05:48:35.203Z,11.30
2023-02-12T05:51:04.221Z,9.75
2023-02-12T05:53:31.923Z,9.15
2023-02-12T05:56:22.358Z,10.07
2023-02-12T05:58:54.310Z,13.23
2023-02-12T06:01:28.504Z,13.35
2023-02-12T06:03:55.672Z,12.93
2023-02-12T06:06:22.801Z,11.80
2023-02-12T06:08:50.134Z,12.95
2023-02-12T06:11:26.278Z,13.70
2023-02-12T06:14:10.538Z,15.77
2023-02-12T06:16:42.348Z,21.15
2023-02-12T06:19:15.850Z,14.77
2023-02-12T06:21:46.358Z,15.18
2023-02-12T06:24:35.828Z,14.00
2023-02-12T06:27:05.083Z,14.30
2023-02-12T06:29:33.748Z,18.23
2023-02-12T06:32:03.884Z,17.58
2023-02-12T06:34:30.919Z,18.10
2023-02-12T06:36:58.003Z,16.55
2023-02-12T06:39:25.094Z,19.77
2023-02-12T06:41:52.087Z,18.23
2023-02-12T06:44:19.277Z,17.02
2023-02-12T06:46:46.209Z,17.30
2023-02-12T06:49:14.765Z,16.73
2023-02-12T06:51:42.147Z,15.00
2023-02-12T06:54:14.528Z,13.85
2023-02-12T06:56:41.557Z,13.27
2023-02-12T06:59:15.770Z,13.85
2023-02-12T07:01:44.173Z,14.55
2023-02-12T07:04:14.982Z,13.88
2023-02-12T07:06:43.320Z,15.35
2023-02-12T07:09:10.297Z,15.43
2023-02-12T07:11:38.587Z,15.65
2023-02-12T07:14:07.008Z,14.85
2023-02-12T07:16:36.340Z,15.48
2023-02-12T07:19:03.378Z,16.83
2023-02-12T07:21:30.989Z,15.98
2023-02-12T07:23:57.948Z,18.10
2023-02-12T07:26:24.846Z,16.92
2023-02-12T07:28:52.033Z,14.65
2023-02-12T07:31:22.922Z,16.48
2023-02-12T07:33:54.110Z,16.25
2023-02-12T07:36:21.598Z,16.75
2023-02-12T07:38:48.625Z,20.52
2023-02-12T07:41:21.892Z,20.10
2023-02-12T07:43:50.043Z,18.00
2023-02-12T07:46:19.950Z,19.70
2023-02-12T07:48:48.364Z,18.02
2023-02-12T07:51:29.438Z,17.02
2023-02-12T07:53:56.656Z,16.30
2023-02-12T07:56:26.146Z,12.75
2023-02-12T07:58:53.893Z,9.55
2023-02-12T08:01:23.354Z,9.50
2023-02-12T08:03:51.408Z,8.80
2023-02-12T08:06:25.944Z,7.65
2023-02-12T08:08:56.621Z,9.60
2023-02-12T08:11:25.404Z,8.85
2023-02-12T08:13:52.761Z,8.77
2023-02-12T08:16:21.780Z,9.10
2023-02-12T08:18:49.920Z,11.68
2023-02-12T08:21:19.130Z,10.75
2023-02-12T08:23:46.642Z,12.57
2023-02-12T08:26:29.048Z,11.52
2023-02-12T08:29:02.522Z,12.45
2023-02-12T08:31:32.255Z,13.85
2023-02-12T08:33:59.899Z,11.05
2023-02-12T08:36:28.847Z,11.20
2023-02-12T08:38:59.541Z,11.02
2023-02-12T08:41:28.694Z,10.63
2023-02-12T08:44:00.740Z,14.45
2023-02-12T08:46:30.326Z,9.82
2023-02-12T08:48:59.715Z,11.65
2023-02-12T08:51:31.062Z,13.13
2023-02-12T08:54:00.525Z,14.65
2023-02-12T08:56:30.007Z,14.82
2023-02-12T08:59:01.962Z,14.07
2023-02-12T09:01:30.910Z,9.52
2023-02-12T09:03:57.739Z,11.98
2023-02-12T09:06:26.493Z,10.32
2023-02-12T09:08:54.614Z,10.90
2023-02-12T09:11:30.874Z,11.93
2023-02-12T09:14:05.805Z,9.13
2023-02-12T09:16:35.565Z,8.77
2023-02-12T09:19:03.951Z,9.13
2023-02-12T09:21:31.242Z,8.73
2023-02-12T09:23:58.481Z,17.35
2023-02-12T09:26:26.310Z,11.13
2023-02-12T09:28:54.081Z,7.65
2023-02-12T09:31:26.801Z,7.93
2023-02-12T09:33:56.339Z,8.07
2023-02-12T09:36:23.158Z,7.15
2023-02-12T09:38:50.483Z,6.97
2023-02-12T09:41:42.788Z,6.30
2023-02-12T09:44:19.885Z,7.28
2023-02-12T09:46:58.997Z,7.30
2023-02-12T09:49:29.167Z,6.80
2023-02-12T09:51:57.086Z,7.40
2023-02-12T09:54:31.525Z,7.30
2023-02-12T09:57:11.012Z,6.32
2023-02-12T09:59:44.145Z,7.85
2023-02-12T10:02:22.249Z,8.50
2023-02-12T10:05:00.787Z,7.78
2023-02-12T10:07:47.234Z,8.30
2023-02-12T10:10:36.069Z,8.30
2023-02-12T10:13:20.474Z,10.25
2023-02-12T10:16:08.304Z,8.27
2023-02-12T10:18:41.295Z,9.23
2023-02-12T10:21:59.607Z,7.72
2023-02-12T10:24:55.630Z,7.25
2023-02-12T10:27:40.505Z,8.15
2023-02-12T10:34:09.554Z,8.15
2023-02-12T10:37:00.197Z,8.68
2023-02-12T10:43:28.413Z,8.48
2023-02-12T10:46:03.567Z,8.25
2023-02-12T10:48:42.924Z,8.55
2023-02-12T10:54:52.538Z,8.18
2023-02-12T10:57:33.199Z,8.93
2023-02-12T11:00:34.783Z,9.02
2023-02-12T11:03:36.528Z,9.38
2023-02-12T11:16:18.302Z,8.88
2023-02-12T11:48:32.566Z,9.18
2023-02-12T11:51:29.529Z,10.70
2023-02-12T11:53:59.808Z,10.48
2023-02-12T12:02:22.024Z,10.70
2023-02-12T12:04:52.442Z,10.15
2023-02-12T12:07:35.589Z,10.57
2023-02-12T12:10:12.695Z,9.77
2023-02-12T12:12:56.904Z,9.80
2023-02-12T12:15:48.850Z,10.18
2023-02-12T12:19:02.241Z,10.13
2023-02-12T12:21:54.656Z,9.15
2023-02-12T12:24:34.559Z,9.23
2023-02-12T12:27:24.621Z,10.68
2023-02-12T12:30:06.404Z,10.38
2023-02-12T12:32:48.507Z,8.82
2023-02-12T12:35:20.263Z,11.57
2023-02-12T12:38:33.675Z,11.00
2023-02-12T12:41:26.676Z,10.27
2023-02-12T12:43:56.570Z,11.48
2023-02-12T12:46:45.588Z,10.70
2023-02-12T12:49:22.412Z,10.23
2023-02-12T12:52:03.714Z,10.40
2023-02-12T12:54:45.536Z,8.98
2023-02-12T12:57:29.972Z,9.38
2023-02-12T13:00:13.043Z,9.55
2023-02-12T13:03:05.626Z,9.88
2023-02-12T13:05:55.927Z,10.48
2023-02-12T13:08:35.659Z,9.43
2023-02-12T13:11:36.058Z,12.07
2023-02-12T13:14:40.832Z,13.45
2023-02-12T13:17:25.480Z,9.65
2023-02-12T13:20:03.876Z,10.70
2023-02-12T13:23:01.654Z,11.27
2023-02-12T13:25:49.061Z,12.45
2023-02-12T13:28:36.300Z,12.73
2023-02-12T13:31:30.150Z,11.57
2023-02-12T13:34:30.853Z,10.45
2023-02-12T13:52:48.348Z,12.73
2023-02-12T13:56:34.011Z,11.52
2023-02-12T14:01:49.778Z,11.98
2023-02-12T14:04:20.210Z,12.13
2023-02-12T14:07:11.826Z,10.45
2023-02-12T14:09:42.765Z,10.82
2023-02-12T14:12:18.879Z,10.90
2023-02-12T14:15:01.382Z,10.82
2023-02-12T14:30:03.792Z,13.15
2023-02-12T14:32:57.674Z,13.55
2023-02-12T14:35:48.266Z,9.82
2023-02-12T14:38:16.388Z,11.45
2023-02-12T14:40:51.008Z,11.85
2023-02-12T14:44:02.174Z,12.52
2023-02-12T14:46:35.274Z,13.13
2023-02-12T14:49:19.847Z,12.75
2023-02-12T14:57:47.940Z,13.52
2023-02-12T15:00:22.195Z,13.63
2023-02-12T15:12:32.887Z,13.68
2023-02-12T15:15:13.516Z,13.75
2023-02-12T15:17:45.095Z,13.10
2023-02-12T15:20:23.049Z,14.48
2023-02-12T15:22:53.117Z,16.10
2023-02-12T15:25:25.663Z,13.82
2023-02-12T15:28:00.789Z,15.00
2023-02-12T15:38:36.542Z,13.82
2023-02-12T15:41:27.099Z,15.35
2023-02-12T15:44:05.890Z,14.18
2023-02-12T15:46:35.573Z,14.05
2023-02-12T15:49:23.851Z,15.20
2023-02-12T15:51:51.066Z,13.43
2023-02-12T15:54:20.871Z,14.52
2023-02-12T15:56:54.621Z,12.45
2023-02-12T15:59:24.916Z,13.95
2023-02-12T16:02:05.082Z,14.23
2023-02-12T16:04:42.749Z,16.02
2023-02-12T16:07:13.819Z,14.85
2023-02-12T16:09:47.927Z,14.23
2023-02-12T16:12:20.654Z,13.73
2023-02-12T16:15:06.289Z,15.45
2023-02-12T16:17:44.465Z,15.27
2023-02-12T16:20:20.573Z,12.52
2023-02-12T16:22:51.487Z,14.18
2023-02-12T16:25:29.102Z,14.80
2023-02-12T16:28:28.067Z,14.18
2023-02-12T16:31:18.852Z,13.05
2023-02-12T16:34:08.630Z,14.05
2023-02-12T16:36:37.892Z,14.52
2023-02-12T16:39:06.762Z,15.00
2023-02-12T16:41:35.741Z,13.73
2023-02-12T16:44:02.844Z,13.50
2023-02-12T16:46:35.590Z,14.93
2023-02-12T16:49:02.843Z,13.77
2023-02-12T16:51:37.348Z,14.55
2023-02-12T16:54:24.387Z,15.27
2023-02-12T16:56:51.989Z,14.88
2023-02-12T16:59:19.082Z,14.50
2023-02-12T17:02:10.672Z,16.42
2023-02-12T17:04:37.724Z,14.43
2023-02-12T17:07:04.525Z,13.88
2023-02-12T17:09:31.549Z,13.57
2023-02-12T17:11:58.388Z,12.65
2023-02-12T17:14:27.221Z,13.20
2023-02-12T17:16:54.096Z,14.15
2023-02-12T17:19:22.029Z,13.90
2023-02-12T17:21:49.575Z,14.85
2023-02-12T17:24:26.339Z,14.73
2023-02-12T17:26:54.318Z,11.85
2023-02-12T17:29:23.538Z,14.25
2023-02-12T17:31:54.732Z,12.13
2023-02-12T17:34:26.109Z,13.75
2023-02-12T17:36:57.832Z,12.70
2023-02-12T17:39:24.674Z,14.07
2023-02-12T17:41:54.503Z,13.60
2023-02-12T17:44:35.773Z,14.45
2023-02-12T17:47:02.804Z,17.38
2023-02-12T17:49:31.477Z,15.30
2023-02-12T17:52:01.614Z,15.52
2023-02-12T17:54:28.561Z,15.82
2023-02-12T17:56:58.363Z,14.38
2023-02-12T17:59:27.665Z,15.77
2023-02-12T18:01:54.439Z,14.68
2023-02-12T18:04:21.555Z,13.07
2023-02-12T18:06:48.993Z,16.02
2023-02-12T18:09:21.307Z,15.55
2023-02-12T18:11:52.400Z,16.88
2023-02-12T18:14:22.336Z,16.75
2023-02-12T18:17:05.876Z,13.73
2023-02-12T18:19:37.292Z,14.30
2023-02-12T18:22:11.570Z,14.52
2023-02-12T18:24:53.316Z,13.60
2023-02-12T18:27:20.760Z,17.10
2023-02-12T18:29:48.966Z,16.75
2023-02-12T18:32:16.579Z,17.98
2023-02-12T18:34:44.321Z,15.60
2023-02-12T18:38:11.222Z,16.05
2023-02-12T18:40:40.639Z,16.75
2023-02-12T18:43:10.024Z,16.10
2023-02-12T18:45:39.592Z,16.85
2023-02-12T18:48:09.615Z,16.17
2023-02-12T18:50:37.303Z,18.95
2023-02-12T18:53:04.751Z,17.02
2023-02-12T18:55:31.703Z,17.35
2023-02-12T18:57:58.564Z,24.90
2023-02-12T19:00:30.966Z,19.20
2023-02-12T19:02:58.520Z,17.27
2023-02-12T19:05:26.647Z,18.60
2023-02-12T19:08:11.486Z,19.67
2023-02-12T19:10:42.920Z,15.02
2023-02-12T19:13:10.557Z,16.65
2023-02-12T19:15:41.210Z,19.13
2023-02-12T19:18:08.213Z,16.85
2023-02-12T19:20:35.161Z,17.35
2023-02-12T19:23:04.926Z,15.75
2023-02-12T19:25:34.444Z,17.63
2023-02-12T19:28:01.364Z,22.70
2023-02-12T19:30:28.505Z,20.92
2023-02-12T19:32:55.554Z,24.65
2023-02-12T19:35:22.558Z,19.85
2023-02-12T19:37:50.708Z,20.15
2023-02-12T19:40:17.659Z,18.08
2023-02-12T19:42:47.262Z,23.70
2023-02-12T19:45:14.538Z,19.85
2023-02-12T19:47:41.551Z,37.28
2023-02-12T19:50:09.559Z,33.58
2023-02-12T19:52:38.141Z,25.08
2023-02-12T19:55:05.191Z,24.55
2023-02-12T19:57:32.035Z,21.77
2023-02-12T19:59:59.258Z,28.77
2023-02-12T20:02:26.362Z,21.15
2023-02-12T20:04:53.344Z,20.70
2023-02-12T20:07:20.568Z,19.00
2023-02-12T20:09:52.430Z,21.67
2023-02-12T20:12:19.344Z,17.58
2023-02-12T20:14:46.861Z,18.20
2023-02-12T20:17:14.423Z,17.60
2023-02-12T20:19:41.342Z,16.75
2023-02-12T20:22:09.299Z,17.40
2023-02-12T20:24:36.348Z,18.55
2023-02-12T20:27:03.965Z,18.02
2023-02-12T20:29:31.830Z,17.05
2023-02-12T20:31:58.911Z,17.10
2023-02-12T20:34:26.560Z,17.70
2023-02-12T20:36:54.515Z,16.38
2023-02-12T20:39:21.710Z,15.70
2023-02-12T20:41:49.087Z,16.08
2023-02-12T20:44:20.277Z,20.25
2023-02-12T20:46:56.582Z,20.25
2023-02-12T20:49:27.707Z,16.98
2023-02-12T20:54:48.064Z,22.45
2023-02-12T20:57:27.423Z,28.13
2023-02-12T20:59:56.379Z,23.60
2023-02-12T21:02:23.635Z,68.03
2023-02-12T21:04:56.621Z,31.20
2023-02-12T21:07:26.406Z,22.42
2023-02-12T21:09:54.295Z,29.25
2023-02-12T21:12:21.231Z,17.48
2023-02-12T21:14:48.475Z,16.33
2023-02-12T21:17:15.475Z,35.92
2023-02-12T21:19:45.223Z,45.13
2023-02-12T21:22:12.203Z,20.30
2023-02-12T21:24:39.491Z,21.80
2023-02-12T21:27:07.096Z,20.52
2023-02-12T21:29:34.116Z,20.35
2023-02-12T21:32:03.067Z,22.40
2023-02-12T21:34:35.349Z,18.10
2023-02-12T21:37:08.257Z,18.15
2023-02-12T21:39:36.072Z,23.98
2023-02-12T21:42:06.674Z,14.85
2023-02-12T21:44:40.978Z,19.98
2023-02-12T21:47:09.439Z,19.00
2023-02-12T21:49:42.664Z,19.98
2023-02-12T21:52:09.632Z,21.33
2023-02-12T21:54:36.613Z,18.30
2023-02-12T21:57:09.159Z,19.00
2023-02-12T21:59:35.980Z,15.35
2023-02-12T22:02:03.231Z,16.15
2023-02-12T22:04:30.676Z,14.90
2023-02-12T22:07:00.186Z,13.85
2023-02-12T22:09:27.439Z,14.70
2023-02-12T22:11:54.987Z,17.00
2023-02-12T22:14:23.120Z,14.57
2023-02-12T22:16:51.034Z,16.55
2023-02-12T22:19:18.107Z,15.65
2023-02-12T22:21:45.251Z,15.02
2023-02-12T22:24:15.582Z,15.75
2023-02-12T22:26:42.541Z,16.95
2023-02-12T22:29:11.808Z,16.85
2023-02-12T22:31:40.638Z,18.48
2023-02-12T22:34:14.015Z,17.40
2023-02-12T22:36:44.235Z,17.50
2023-02-12T22:39:15.804Z,16.73
2023-02-12T22:41:43.658Z,18.95
2023-02-12T22:44:13.427Z,17.80
2023-02-12T22:47:02.648Z,18.65
2023-02-12T22:49:29.897Z,19.92
2023-02-12T22:51:58.145Z,15.65
2023-02-12T22:54:26.207Z,16.55
2023-02-12T22:56:58.090Z,16.85
2023-02-12T22:59:25.590Z,15.05
2023-02-12T23:01:52.633Z,14.88
2023-02-12T23:04:28.805Z,14.50
2023-02-12T23:06:55.989Z,14.52
2023-02-12T23:09:25.560Z,17.50
2023-02-12T23:11:52.616Z,16.23
2023-02-12T23:14:25.820Z,15.07
2023-02-12T23:16:53.267Z,15.90
2023-02-12T23:19:22.437Z,15.38
2023-02-12T23:21:51.829Z,12.43
2023-02-12T23:24:19.037Z,13.30
2023-02-12T23:26:48.719Z,14.50
2023-02-12T23:29:18.866Z,15.90
2023-02-12T23:31:51.233Z,14.88
2023-02-12T23:34:18.526Z,13.63
2023-02-12T23:36:45.628Z,14.20
2023-02-12T23:39:13.576Z,16.08
2023-02-12T23:41:40.508Z,13.73
2023-02-12T23:44:09.831Z,14.27
2023-02-12T23:46:37.501Z,16.48
2023-02-12T23:49:04.939Z,15.70
2023-02-12T23:51:35.571Z,20.40
2023-02-12T23:54:05.220Z,12.63
2023-02-12T23:56:32.100Z,15.32
2023-02-12T23:58:58.990Z,17.73
